createdAt,value
2023-01-26T00:02:07.220Z,1.50
2023-01-26T00:07:08.877Z,1.50
2023-01-26T00:12:10.600Z,1.50
2023-01-26T00:17:12.320Z,1.50
2023-01-26T00:22:14.197Z,1.50
2023-01-26T00:27:15.975Z,1.60
2023-01-26T00:32:17.710Z,1.60
2023-01-26T00:37:19.433Z,1.60
2023-01-26T00:42:21.882Z,1.60
2023-01-26T00:47:23.793Z,1.60
2023-01-26T00:52:25.568Z,1.60
2023-01-26T00:57:27.389Z,1.60
2023-01-26T01:02:29.306Z,1.60
2023-01-26T01:07:31.023Z,1.60
2023-01-26T01:12:32.724Z,1.60
2023-01-26T01:17:36.434Z,1.60
2023-01-26T01:22:38.508Z,1.60
2023-01-26T01:27:40.306Z,1.70
2023-01-26T01:32:42.087Z,1.60
2023-01-26T01:37:45.101Z,1.60
2023-01-26T01:42:48.550Z,1.60
2023-01-26T01:47:51.067Z,1.60
2023-01-26T01:52:55.348Z,1.60
2023-01-26T01:58:02.063Z,1.60
2023-01-26T02:03:21.005Z,1.60
2023-01-26T02:08:27.617Z,1.60
2023-01-26T02:13:31.746Z,1.60
2023-01-26T02:18:33.616Z,1.60
2023-01-26T02:24:02.544Z,1.60
2023-01-26T02:29:08.487Z,1.60
2023-01-26T02:34:10.319Z,1.50
2023-01-26T02:39:43.670Z,1.50
2023-01-26T02:44:45.537Z,1.50
2023-01-26T02:49:47.326Z,1.50
2023-01-26T02:55:07.594Z,1.50
2023-01-26T03:00:12.776Z,1.50
2023-01-26T03:05:15.167Z,1.50
2023-01-26T03:10:18.292Z,1.50
2023-01-26T03:15:42.703Z,1.40
2023-01-26T03:21:03.048Z,1.50
2023-01-26T03:26:23.909Z,1.40
2023-01-26T03:31:25.785Z,1.40
2023-01-26T03:36:27.621Z,1.40
2023-01-26T03:41:47.868Z,1.40
2023-01-26T03:47:08.566Z,1.30
2023-01-26T03:52:28.868Z,1.30
2023-01-26T03:57:30.600Z,1.30
2023-01-26T04:02:51.314Z,1.30
2023-01-26T04:08:12.054Z,1.30
2023-01-26T04:13:32.631Z,1.20
2023-01-26T04:18:53.372Z,1.30
2023-01-26T04:23:57.667Z,1.30
2023-01-26T04:28:59.736Z,1.20
2023-01-26T04:34:02.735Z,1.30
2023-01-26T04:39:04.958Z,1.20
2023-01-26T04:44:06.755Z,1.20
2023-01-26T04:49:08.901Z,1.30
2023-01-26T04:54:10.681Z,1.30
2023-01-26T04:59:13.057Z,1.30
2023-01-26T05:04:15.006Z,1.30
2023-01-26T05:09:16.841Z,1.30
2023-01-26T05:14:18.558Z,1.20
2023-01-26T05:19:20.310Z,1.20
2023-01-26T05:24:22.079Z,1.20
2023-01-26T05:29:24.013Z,1.20
2023-01-26T05:34:25.734Z,1.20
2023-01-26T05:39:27.576Z,1.20
2023-01-26T05:44:29.814Z,1.20
2023-01-26T05:49:31.776Z,1.20
2023-01-26T05:54:33.485Z,1.20
2023-01-26T05:59:35.484Z,1.20
2023-01-26T06:04:37.333Z,1.20
2023-01-26T06:09:40.177Z,1.20
2023-01-26T06:14:42.165Z,1.20
2023-01-26T06:19:44.401Z,1.20
2023-01-26T06:24:46.870Z,1.20
2023-01-26T06:29:48.924Z,1.20
2023-01-26T06:34:52.881Z,1.20
2023-01-26T06:39:55.679Z,1.20
2023-01-26T06:44:58.872Z,1.20
2023-01-26T06:50:00.642Z,1.20
2023-01-26T06:55:03.924Z,1.30
2023-01-26T07:00:06.203Z,1.30
2023-01-26T07:05:08.525Z,1.30
2023-01-26T07:10:11.350Z,1.30
2023-01-26T07:15:13.817Z,1.30
2023-01-26T07:20:16.047Z,1.30
2023-01-26T07:25:18.559Z,1.30
2023-01-26T07:30:20.532Z,1.30
2023-01-26T07:35:22.234Z,1.30
2023-01-26T07:40:24.053Z,1.30
2023-01-26T07:45:26.515Z,1.30
2023-01-26T07:50:28.861Z,1.30
2023-01-26T07:55:30.558Z,1.30
2023-01-26T08:00:32.355Z,1.30
2023-01-26T08:05:35.568Z,1.40
2023-01-26T08:10:38.174Z,1.40
2023-01-26T08:15:39.959Z,1.40
2023-01-26T08:20:41.913Z,1.40
2023-01-26T08:25:43.689Z,1.40
2023-01-26T08:30:45.557Z,1.40
2023-01-26T08:35:47.402Z,1.50
2023-01-26T08:40:52.331Z,1.40
2023-01-26T08:45:54.303Z,1.50
2023-01-26T08:50:57.607Z,1.50
2023-01-26T08:56:03.723Z,1.60
2023-01-26T09:01:12.250Z,1.60
2023-01-26T09:06:14.840Z,1.60
2023-01-26T09:11:16.649Z,1.60
2023-01-26T09:16:20.726Z,1.70
2023-01-26T09:21:24.168Z,1.70
2023-01-26T09:26:25.909Z,1.70
2023-01-26T09:31:28.078Z,1.70
2023-01-26T09:36:30.116Z,1.80
2023-01-26T09:41:52.086Z,1.90
2023-01-26T09:47:08.268Z,1.90
2023-01-26T09:52:16.368Z,1.90
2023-01-26T09:57:41.623Z,1.90
2023-01-26T10:03:12.118Z,2.00
2023-01-26T10:08:16.686Z,2.10
2023-01-26T10:13:19.992Z,2.00
2023-01-26T10:18:27.700Z,2.10
2023-01-26T10:23:31.735Z,2.10
2023-01-26T10:28:35.432Z,2.00
2023-01-26T10:33:39.765Z,2.00
2023-01-26T10:38:43.920Z,2.00
2023-01-26T10:43:55.055Z,1.90
2023-01-26T10:49:00.270Z,1.90
2023-01-26T10:54:24.066Z,1.90
2023-01-26T10:59:28.880Z,1.80
2023-01-26T11:04:30.960Z,1.80
2023-01-26T11:09:32.857Z,1.70
2023-01-26T11:14:35.296Z,1.70
2023-01-26T11:19:45.993Z,1.70
2023-01-26T11:24:56.669Z,1.70
2023-01-26T11:30:36.078Z,1.70
2023-01-26T11:35:41.024Z,1.70
2023-01-26T11:41:01.185Z,1.70
2023-01-26T11:46:26.305Z,1.70
2023-01-26T11:51:48.749Z,1.70
2023-01-26T11:56:57.963Z,1.60
2023-01-26T12:02:38.346Z,1.60
2023-01-26T12:07:55.941Z,1.60
2023-01-26T12:13:20.239Z,1.60
2023-01-26T12:18:48.965Z,1.60
2023-01-26T12:24:06.298Z,1.50
2023-01-26T12:29:09.698Z,1.50
2023-01-26T12:34:13.823Z,1.50
2023-01-26T12:39:18.770Z,1.50
2023-01-26T12:44:38.433Z,1.50
2023-01-26T12:50:02.037Z,1.50
2023-01-26T12:55:18.378Z,1.50
2023-01-26T13:00:33.697Z,1.50
2023-01-26T13:05:36.383Z,1.40
2023-01-26T13:10:48.916Z,1.40
2023-01-26T13:16:13.568Z,1.40
2023-01-26T13:21:35.669Z,1.40
2023-01-26T13:26:37.347Z,1.30
2023-01-26T13:31:39.173Z,1.30
2023-01-26T13:36:45.422Z,1.30
2023-01-26T13:41:48.645Z,1.30
2023-01-26T13:47:07.341Z,1.30
2023-01-26T13:52:24.150Z,1.20
2023-01-26T13:57:28.651Z,1.30
2023-01-26T14:02:32.730Z,1.30
2023-01-26T14:07:37.025Z,1.30
2023-01-26T14:12:43.761Z,1.20
2023-01-26T14:17:57.291Z,1.20
2023-01-26T14:23:18.893Z,1.20
2023-01-26T14:28:25.909Z,1.20
2023-01-26T14:33:27.994Z,1.20
2023-01-26T14:38:39.225Z,1.20
2023-01-26T14:43:41.090Z,1.20
2023-01-26T14:48:52.851Z,1.10
2023-01-26T14:53:58.643Z,1.20
2023-01-26T14:59:01.322Z,1.10
2023-01-26T15:04:16.400Z,1.10
2023-01-26T15:09:28.397Z,1.20
2023-01-26T15:14:30.363Z,1.10
2023-01-26T15:19:39.639Z,1.20
2023-01-26T15:24:41.701Z,1.20
2023-01-26T15:29:43.524Z,1.20
2023-01-26T15:34:45.969Z,1.20
2023-01-26T15:39:47.931Z,1.10
2023-01-26T15:44:49.831Z,1.10
2023-01-26T15:49:51.605Z,1.10
2023-01-26T15:54:53.927Z,1.10
2023-01-26T15:59:55.726Z,1.10
2023-01-26T16:04:57.616Z,1.20
2023-01-26T16:10:01.120Z,1.10
2023-01-26T16:15:03.441Z,1.10
2023-01-26T16:20:05.877Z,1.10
2023-01-26T16:25:23.557Z,1.10
2023-01-26T16:30:26.444Z,1.10
2023-01-26T16:35:29.320Z,1.00
2023-01-26T16:40:31.246Z,1.00
2023-01-26T16:45:34.150Z,1.00
2023-01-26T16:50:35.873Z,1.00
2023-01-26T16:55:38.007Z,0.90
2023-01-26T17:00:40.187Z,1.00
2023-01-26T17:05:42.030Z,1.00
2023-01-26T17:10:59.862Z,1.00
2023-01-26T17:16:03.432Z,1.00
2023-01-26T17:21:05.400Z,1.00
2023-01-26T17:26:08.891Z,1.00
2023-01-26T17:31:12.965Z,1.00
2023-01-26T17:36:15.841Z,1.00
2023-01-26T17:41:17.892Z,1.00
2023-01-26T17:46:21.740Z,1.00
2023-01-26T17:51:23.748Z,1.00
2023-01-26T17:56:26.308Z,1.00
2023-01-26T18:01:28.277Z,1.00
2023-01-26T18:06:30.947Z,1.00
2023-01-26T18:11:33.000Z,1.00
2023-01-26T18:16:34.807Z,1.00
2023-01-26T18:21:36.918Z,1.10
2023-01-26T18:26:39.078Z,1.00
2023-01-26T18:31:41.143Z,1.10
2023-01-26T18:36:42.935Z,1.00
2023-01-26T18:41:44.710Z,1.00
2023-01-26T18:46:46.681Z,1.00
2023-01-26T18:51:49.111Z,1.00
2023-01-26T18:56:50.857Z,1.00
2023-01-26T19:01:52.638Z,1.00
2023-01-26T19:06:54.351Z,1.00
2023-01-26T19:11:57.311Z,1.00
2023-01-26T19:16:59.988Z,1.00
2023-01-26T19:22:01.779Z,1.00
2023-01-26T19:27:06.010Z,1.10
2023-01-26T19:32:07.847Z,1.10
2023-01-26T19:37:09.616Z,1.10
2023-01-26T19:42:11.396Z,1.10
2023-01-26T19:47:13.396Z,1.10
2023-01-26T19:52:15.145Z,1.10
2023-01-26T19:57:16.915Z,1.10
2023-01-26T20:02:18.778Z,1.20
2023-01-26T20:07:20.548Z,1.20
2023-01-26T20:12:22.400Z,1.10
2023-01-26T20:17:24.143Z,1.20
2023-01-26T20:22:33.311Z,1.20
2023-01-26T20:27:35.046Z,1.30
2023-01-26T20:32:36.815Z,1.20
2023-01-26T20:37:38.625Z,1.30
2023-01-26T20:42:40.409Z,1.20
2023-01-26T20:47:43.669Z,1.30
2023-01-26T20:52:45.488Z,1.20
2023-01-26T20:57:47.539Z,1.30
2023-01-26T21:02:49.236Z,1.40
2023-01-26T21:07:50.984Z,1.40
2023-01-26T21:12:52.817Z,1.40
2023-01-26T21:17:54.555Z,1.50
2023-01-26T21:22:56.264Z,1.80
2023-01-26T21:27:58.001Z,2.00
2023-01-26T21:32:59.767Z,2.10
2023-01-26T21:38:01.530Z,2.10
2023-01-26T21:43:03.311Z,2.20
2023-01-26T21:48:27.151Z,2.20
2023-01-26T21:53:28.891Z,2.20
2023-01-26T21:58:49.190Z,2.20
2023-01-26T22:03:54.355Z,2.10
2023-01-26T22:08:58.540Z,2.20
2023-01-26T22:14:00.905Z,2.10
2023-01-26T22:19:03.675Z,2.10
2023-01-26T22:24:07.018Z,2.10
2023-01-26T22:29:11.817Z,2.10
2023-01-26T22:34:13.592Z,2.00
2023-01-26T22:39:15.327Z,2.00
2023-01-26T22:44:17.153Z,1.90
2023-01-26T22:49:19.212Z,1.90
2023-01-26T22:54:20.999Z,1.90
2023-01-26T22:59:22.696Z,1.80
2023-01-26T23:04:24.551Z,1.80
2023-01-26T23:09:26.607Z,1.80
2023-01-26T23:14:32.549Z,1.70
2023-01-26T23:19:34.308Z,1.70
2023-01-26T23:24:36.086Z,1.70
2023-01-26T23:29:37.808Z,1.60
2023-01-26T23:34:39.540Z,1.60
2023-01-26T23:39:41.289Z,1.50
2023-01-26T23:44:42.987Z,1.50
2023-01-26T23:49:44.753Z,1.50
2023-01-26T23:54:46.554Z,1.40
2023-01-26T23:59:48.252Z,1.40
